Date,TemperatureHighF,TemperatureAvgF,TemperatureLowF,DewpointHighF,DewpointAvgF,DewpointLowF,HumidityHigh,HumidityAvg,HumidityLow,PressureMaxIn,PressureMinIn,WindSpeedMaxMPH,WindSpeedAvgMPH,GustSpeedMaxMPH,PrecipitationSumIn
2013-10-1,72,65,60,64,60,56,87,83,72,29.84,29.75,5,2,10,0.00
2013-10-2,67,58,53,54,51,48,87,78,58,30.08,30.04,7,1,8,0.00
2013-10-3,67,57,49,60,53,44,100,87,73,30.07,29.92,3,0,5,1.42
2013-10-4,60,57,55,60,57,54,99,98,95,30.09,29.90,1,0,4,0.52
2013-10-5,63,57,55,60,56,54,98,96,86,30.09,29.86,7,0,11,0.64
2013-10-6,65,59,56,64,57,52,99,94,79,29.86,29.63,13,3,14,0.25
2013-10-7,58,54,46,54,49,43,96,84,70,30.07,29.58,16,7,19,0.06
2013-10-8,68,55,43,54,49,41,96,80,54,30.22,30.07,7,0,7,0.00
2013-10-9,72,60,52,59,52,48,96,77,56,30.26,30.16,2,0,5,0.00
2013-10-10,69,55,46,55,50,44,97,83,55,30.23,30.12,1,0,2,0.00
2013-10-11,69,55,45,57,49,43,97,83,52,30.17,30.05,1,0,2,0.00
2013-10-12,76,62,53,61,54,44,94,75,52,30.06,29.92,11,1,11,0.03
2013-10-13,62,55,46,55,48,41,84,77,68,30.42,30.04,14,5,16,0.00
2013-10-14,57,47,38,47,41,37,96,81,54,30.49,30.30,4,0,5,0.00
2013-10-15,58,50,40,57,47,38,98,90,74,30.30,29.73,1,0,3,0.12
2013-10-16,59,54,51,58,50,42,97,87,73,29.88,29.69,12,8,16,0.02
2013-10-17,51,50,45,44,42,39,90,76,66,29.89,29.76,10,3,12,0.00
2013-10-18,55,49,44,49,45,40,97,86,67,29.83,29.77,11,3,14,0.45
2013-10-19,50,44,38,45,40,35,98,87,59,29.83,29.72,16,3,20,0.70
2013-10-20,50,44,37,44,40,36,98,86,63,29.86,29.69,7,1,10,0.44
2013-10-21,51,45,39,49,41,32,97,85,68,29.82,29.65,23,12,27,0.23
2013-10-22,44,41,36,40,36,32,93,84,70,29.92,29.71,26,11,30,0.17
2013-10-23,43,38,32,37,33,29,97,82,60,29.92,29.87,20,5,21,0.14
2013-10-24,45,41,38,38,36,31,94,80,66,30.17,29.90,15,8,18,0.25
2013-10-25,46,43,38,41,34,31,88,73,63,30.27,29.84,18,9,25,0.05
2013-10-26,52,45,40,44,39,34,89,78,69,29.99,29.62,22,15,28,0.09
2013-10-27,49,45,40,42,36,31,83,72,61,30.00,29.89,13,8,18,0.01
2013-10-28,48,37,29,40,29,24,84,72,55,30.53,30.01,4,1,15,0.00
2013-10-29,41,34,26,34,28,24,92,80,58,30.54,30.27,1,0,4,0.00
2013-10-30,56,46,38,48,41,34,92,84,66,30.27,29.87,1,0,1,0.01
2013-10-31,58,54,51,58,54,48,99,98,89,29.87,29.05,6,0,7,0.52